Startpagina
METAR-TAF:

METAR-TAF

Vliegvelden :

Cody, Wyoming, Verenigde Staten

breedte: 44-31N, lengte: 109-01W, hoogte: 1551 m

Actueel weer

Dit bericht is 1 uur en het 3 minuten geleden gemaakt, om 16:56 UTC
Wind 3 kt uit het noordwesten
Temperatuur -4°C
Vochtigheid 63%
Druk 1032 hPa
Zicht: 16.1 km
Onbewolkt

METAR: KCOD 121656Z AUTO 31003KT 10SM CLR M04/M10 A3048 RMK AO2 SLP384 T10441100 FZRANO

Tijdstip: 10:59 (17:59 UTC)

Verwachting

Dit bericht is 29 minuten geleden gemaakt, om 17:30 UTC
Verwachting geldig van 12 om 18 UTC tot 13 om 18 UTC
Wind 3 kt uit variabele richting
Zicht: 10 km
Onbewolkt
Van 13 om 0100 UTC
Wind 7 kt uit het westzuidwesten
Zicht: 10 km
Verspreide wolken op 10000 ft
Van 13 om 1600 UTC
Wind 5 kt uit variabele richting
Zicht: 10 km
Weinig wolken op 25000 ft

TAF: KCOD 121730Z 1218/1318 VRB03KT P6SM SKC FM130100 24007KT P6SM SCT100 FM131600 VRB05KT P6SM FEW250 AMD LTD TO CLD VIS AND WIND

Waarnemingen en weersverwachtingen van meer dan 4000 vliegvelden (METAR en TAF).

De beschikbare stations zijn de gele en rode punten op de kaart.

Ga met uw muis naar het station om de naam te zien.

Klik dan om waarnemingen en weersverwachtingen te zien.

kaart wijzigen: klik op de groene knoppen met een zwart kruis om in te zoomen, op de groene knop met een streepje om uit te zoomen of op de groene pijlen voor aangrenzende kaarten.


METAR-TAF: